Time;durP1;ratioP1;P1;durP2;ratioP2;P2;SDS_P1;SDS_P2;PMS_P1;PMS_P2;Temp;Humidity;BMP_temperature;BMP_pressure;BME280_temperature;BME280_humidity;BME280_pressure;Samples;Min_cycle;Max_cycle;Signal;HPM_P1;HPM_P2
2021/05/18 00:02:17;;;;;;;2.10;0.87;;;;;;;10.17;97.68;95828.25;5047303;28;20527;-91
2021/05/18 00:04:44;;;;;;;0.70;0.60;;;;;;;10.17;97.90;95830.94;5040892;28;20465;-90
2021/05/18 00:07:14;;;;;;;1.70;0.70;;;;;;;10.14;97.82;95832.06;5040749;28;20510;-90
2021/05/18 00:12:26;;;;;;;1.30;0.60;;;;;;;10.07;97.28;95838.19;5040209;28;20431;-89
2021/05/18 00:14:52;;;;;;;1.47;0.70;;;;;;;10.09;98.12;95841.03;5040232;28;20492;-90
2021/05/18 00:17:19;;;;;;;1.43;0.50;;;;;;;10.07;97.90;95840.88;5040655;28;20501;-90
2021/05/18 00:19:45;;;;;;;1.23;0.50;;;;;;;10.02;98.45;95839.13;5040029;28;20467;-90
2021/05/18 00:22:12;;;;;;;2.43;0.70;;;;;;;10.07;98.71;95832.78;5040953;28;20482;-90
2021/05/18 00:24:38;;;;;;;0.70;0.57;;;;;;;10.03;98.73;95846.63;5040649;28;20387;-90
2021/05/18 00:27:05;;;;;;;1.50;0.70;;;;;;;10.13;98.31;95835.97;5040131;28;20447;-90
2021/05/18 00:29:32;;;;;;;1.17;0.60;;;;;;;10.12;98.22;95834.53;5039873;28;21005;-89
2021/05/18 00:31:59;;;;;;;0.80;0.57;;;;;;;10.07;99.10;95841.59;5040577;28;20481;-90
2021/05/18 00:34:25;;;;;;;2.33;0.53;;;;;;;10.09;99.25;95833.66;5040800;28;20552;-90
2021/05/18 00:36:51;;;;;;;0.63;0.60;;;;;;;10.07;99.57;95838.91;5040391;28;20497;-90
2021/05/18 00:39:18;;;;;;;1.33;0.83;;;;;;;10.04;100.00;95833.88;5040083;28;20993;-90
2021/05/18 00:41:45;;;;;;;1.10;0.63;;;;;;;10.03;100.00;95843.22;5040021;28;20859;-90
2021/05/18 00:44:12;;;;;;;0.90;0.57;;;;;;;10.04;100.00;95839.28;5038754;28;20422;-91
2021/05/18 00:46:40;;;;;;;0.70;0.70;;;;;;;9.98;100.00;95841.47;5040426;28;20495;-89
2021/05/18 00:49:06;;;;;;;1.90;0.60;;;;;;;10.00;100.00;95838.94;5039872;28;20538;-90
2021/05/18 00:51:32;;;;;;;0.60;0.50;;;;;;;10.06;100.00;95845.53;5039489;28;20447;-90
2021/05/18 00:54:01;;;;;;;1.17;0.60;;;;;;;10.01;100.00;95848.47;5040268;28;20511;-91
2021/05/18 00:58:25;;;;;;;1.13;0.70;;;;;;;9.97;100.00;95846.13;5040569;28;20469;-91
2021/05/18 00:59:19;;;;;;;2.47;0.80;;;;;;;9.96;100.00;95854.78;5038899;28;20956;-90
2021/05/18 01:01:46;;;;;;;1.10;0.80;;;;;;;9.93;100.00;95858.56;5047910;28;20458;-91
2021/05/18 01:04:15;;;;;;;1.27;0.70;;;;;;;9.88;100.00;95860.22;5040290;28;20204;-91
2021/05/18 01:06:42;;;;;;;2.77;0.60;;;;;;;9.91;100.00;95855.69;5040568;28;20451;-89
2021/05/18 01:09:10;;;;;;;1.93;0.70;;;;;;;9.94;100.00;95860.72;5039746;28;20609;-90
2021/05/18 01:11:38;;;;;;;1.13;0.60;;;;;;;9.91;100.00;95869.16;5040032;28;20780;-90
2021/05/18 01:14:09;;;;;;;0.73;0.60;;;;;;;9.95;100.00;95870.22;5041972;28;20531;-89
2021/05/18 01:16:38;;;;;;;1.10;0.50;;;;;;;9.92;100.00;95865.94;5043888;28;20417;-89
2021/05/18 01:19:06;;;;;;;2.10;0.50;;;;;;;9.90;100.00;95878.53;5045034;28;20458;-88
2021/05/18 01:21:34;;;;;;;2.43;0.70;;;;;;;9.86;100.00;95870.81;5043418;28;20420;-90
2021/05/18 01:24:04;;;;;;;2.00;0.70;;;;;;;9.91;100.00;95864.50;5039790;28;20520;-90
2021/05/18 01:26:32;;;;;;;1.20;0.70;;;;;;;9.90;100.00;95873.84;5038454;28;20435;-90
2021/05/18 01:28:58;;;;;;;1.00;0.60;;;;;;;9.86;100.00;95878.91;5039381;28;20434;-90
2021/05/18 01:31:26;;;;;;;1.73;0.60;;;;;;;9.87;100.00;95876.91;5039352;28;20449;-90
2021/05/18 01:33:53;;;;;;;0.77;0.50;;;;;;;9.84;100.00;95875.31;5039104;28;20809;-89
2021/05/18 01:36:21;;;;;;;2.00;0.60;;;;;;;9.85;100.00;95877.47;5039557;28;20467;-89
2021/05/18 01:38:56;;;;;;;0.83;0.60;;;;;;;9.92;100.00;95882.13;5038961;28;20442;-90
2021/05/18 01:44:08;;;;;;;0.80;0.57;;;;;;;9.90;100.00;95883.94;5037705;28;20478;-88
2021/05/18 01:46:34;;;;;;;1.10;0.80;;;;;;;9.92;100.00;95886.78;5038185;28;20439;-88
2021/05/18 01:49:02;;;;;;;1.67;0.60;;;;;;;9.95;100.00;95880.28;5038401;28;20799;-88
2021/05/18 01:51:30;;;;;;;0.77;0.60;;;;;;;9.94;100.00;95876.16;5037714;28;20434;-88
2021/05/18 01:53:59;;;;;;;1.07;0.60;;;;;;;9.93;100.00;95872.06;5038454;28;20920;-88
2021/05/18 01:56:40;;;;;;;0.80;0.60;;;;;;;10.04;100.00;95871.63;5037326;28;20465;-88
2021/05/18 01:59:09;;;;;;;2.00;0.70;;;;;;;10.01;100.00;95862.66;5037902;28;20549;-88
2021/05/18 02:01:36;;;;;;;5.03;1.23;;;;;;;9.97;100.00;95859.63;5037816;28;20887;-88
2021/05/18 02:04:04;;;;;;;1.50;1.20;;;;;;;9.96;100.00;95865.56;5037104;28;20522;-88
2021/05/18 02:06:31;;;;;;;1.60;0.83;;;;;;;9.94;100.00;95870.78;5038717;28;20534;-90
2021/05/18 02:08:59;;;;;;;1.00;0.63;;;;;;;9.96;100.00;95877.03;5038459;28;20556;-90
2021/05/18 02:11:25;;;;;;;4.20;1.23;;;;;;;9.94;100.00;95881.56;5038593;28;20478;-90
2021/05/18 02:13:54;;;;;;;2.40;0.93;;;;;;;9.85;100.00;95888.25;5039411;28;20472;-89
2021/05/18 02:16:25;;;;;;;1.10;1.00;;;;;;;9.85;100.00;95890.94;5039288;28;20493;-90
2021/05/18 02:19:06;;;;;;;3.33;0.70;;;;;;;9.91;100.00;95888.03;5039116;28;20461;-90
2021/05/18 02:21:47;;;;;;;1.50;0.73;;;;;;;9.86;100.00;95888.97;5039774;28;20445;-90
2021/05/18 02:26:58;;;;;;;2.20;0.80;;;;;;;9.97;100.00;95883.16;5038350;28;20415;-90
2021/05/18 02:29:24;;;;;;;4.20;0.97;;;;;;;9.88;100.00;95892.53;5037698;28;20625;-89
2021/05/18 02:31:54;;;;;;;2.37;1.67;;;;;;;9.92;100.00;95886.78;5038883;28;20463;-90
2021/05/18 02:34:20;;;;;;;1.83;0.70;;;;;;;9.97;100.00;95888.53;5038661;28;20444;-89
2021/05/18 02:36:46;;;;;;;1.50;1.10;;;;;;;9.98;100.00;95895.38;5038712;28;20455;-90
2021/05/18 02:39:12;;;;;;;2.00;0.80;;;;;;;9.98;100.00;95901.47;5038922;28;20538;-90
2021/05/18 02:41:42;;;;;;;1.70;0.73;;;;;;;9.97;100.00;95896.63;5038979;28;20439;-89
2021/05/18 02:44:12;;;;;;;2.33;1.00;;;;;;;9.85;100.00;95893.63;5038346;28;20522;-90
2021/05/18 02:49:23;;;;;;;2.50;0.70;;;;;;;9.79;100.00;95893.13;5037768;28;20450;-90
2021/05/18 02:51:51;;;;;;;3.60;0.80;;;;;;;9.83;100.00;95898.16;5038699;28;20831;-89
2021/05/18 02:54:22;;;;;;;1.47;0.60;;;;;;;9.86;100.00;95900.47;5038500;28;20501;-89
2021/05/18 02:56:53;;;;;;;1.37;1.27;;;;;;;9.88;100.00;95897.22;5040256;28;20405;-89
2021/05/18 02:59:19;;;;;;;6.10;0.93;;;;;;;9.88;100.00;95905.28;5038036;28;20446;-90
2021/05/18 03:01:48;;;;;;;3.37;1.10;;;;;;;9.83;100.00;95912.34;5038878;28;20422;-90
2021/05/18 03:04:14;;;;;;;2.90;0.90;;;;;;;9.81;100.00;95904.06;5039119;28;20522;-90
2021/05/18 03:06:40;;;;;;;1.67;1.10;;;;;;;9.82;100.00;95907.47;5038470;28;20445;-90
2021/05/18 03:09:10;;;;;;;1.87;0.70;;;;;;;9.87;100.00;95901.16;5038101;28;20490;-90
2021/05/18 03:11:37;;;;;;;2.43;1.10;;;;;;;9.82;100.00;95904.78;5038407;28;20457;-88
2021/05/18 03:14:05;;;;;;;2.17;0.63;;;;;;;9.78;100.00;95904.44;5038037;28;20600;-89
2021/05/18 03:16:31;;;;;;;1.50;0.90;;;;;;;9.81;100.00;95901.38;5041672;28;20482;-89
2021/05/18 03:18:57;;;;;;;1.47;0.80;;;;;;;9.79;100.00;95887.75;5047896;28;20453;-89
2021/05/18 03:21:23;;;;;;;0.97;0.70;;;;;;;9.85;100.00;95893.63;5059800;28;20507;-89
2021/05/18 03:23:51;;;;;;;1.20;0.93;;;;;;;9.86;100.00;95897.06;5051854;28;20503;-88
2021/05/18 03:26:17;;;;;;;2.90;0.77;;;;;;;9.81;100.00;95906.03;5044021;28;20425;-89
2021/05/18 03:28:43;;;;;;;3.13;0.63;;;;;;;9.79;100.00;95900.50;5042872;28;20550;-89
2021/05/18 03:34:26;;;;;;;0.80;0.60;;;;;;;9.89;100.00;95901.34;5043522;28;20421;-89
2021/05/18 03:36:44;;;;;;;1.27;0.60;;;;;;;9.88;100.00;95906.00;5042008;28;20434;-89
2021/05/18 03:39:10;;;;;;;2.67;0.77;;;;;;;9.90;100.00;95905.47;5042730;28;20984;-90
2021/05/18 03:41:49;;;;;;;3.30;0.90;;;;;;;9.94;100.00;95911.19;5043198;28;20422;-91
2021/05/18 03:44:20;;;;;;;2.07;0.77;;;;;;;9.87;100.00;95911.94;5043396;28;20394;-91
2021/05/18 03:58:33;;;;;;;1.13;0.60;;;;;;;9.72;100.00;95922.78;5041966;28;20497;-91
2021/05/18 04:03:27;;;;;;;1.63;0.60;;;;;;;9.82;100.00;95939.81;5045530;28;20390;-90
2021/05/18 04:16:55;;;;;;;0.80;0.67;;;;;;;9.90;99.78;95943.91;5042315;28;20397;-88
2021/05/18 04:19:25;;;;;;;1.13;0.90;;;;;;;9.86;99.18;95945.56;5041802;28;20470;-88
2021/05/18 04:22:02;;;;;;;2.40;1.40;;;;;;;9.94;98.61;95944.25;5041434;28;20437;-89
2021/05/18 04:41:15;;;;;;;2.63;0.73;;;;;;;10.04;97.07;95963.25;5041594;28;20398;-88
2021/05/18 04:51:58;;;;;;;0.73;0.57;;;;;;;10.12;97.12;95974.72;5011204;28;20473;-91
2021/05/18 05:00:08;;;;;;;1.00;0.73;;;;;;;10.10;96.62;95988.75;5049797;28;20430;-89
2021/05/18 05:02:51;;;;;;;1.07;0.67;;;;;;;10.07;96.51;95983.72;5059010;28;20402;-89
2021/05/18 05:08:06;;;;;;;1.40;0.60;;;;;;;10.14;96.38;95991.09;5041980;28;20462;-92
2021/05/18 05:16:01;;;;;;;0.63;0.60;;;;;;;10.14;95.55;95993.81;5042849;28;20470;-92
2021/05/18 05:18:28;;;;;;;0.67;0.60;;;;;;;10.10;95.90;95998.81;5044054;28;20995;-90
2021/05/18 05:20:54;;;;;;;2.43;0.80;;;;;;;10.05;96.32;95997.06;5044117;28;20402;-91
2021/05/18 05:23:21;;;;;;;1.00;0.90;;;;;;;10.06;96.17;96001.16;5043989;28;20421;-90
2021/05/18 05:25:47;;;;;;;1.00;0.60;;;;;;;10.08;96.66;96009.44;5043026;28;20426;-91
2021/05/18 05:28:14;;;;;;;1.37;1.10;;;;;;;10.13;96.60;96005.81;5043934;28;20476;-91
2021/05/18 05:30:40;;;;;;;1.00;0.80;;;;;;;10.19;96.76;96017.13;5044767;28;20501;-91
2021/05/18 05:33:06;;;;;;;4.60;1.00;;;;;;;10.20;97.20;96019.31;5044496;28;20435;-91
2021/05/18 05:35:32;;;;;;;2.20;0.90;;;;;;;10.17;97.20;96016.97;5043651;28;20552;-90
2021/05/18 05:37:58;;;;;;;2.80;1.03;;;;;;;10.04;97.94;96014.47;5042178;28;20472;-91
2021/05/18 05:40:25;;;;;;;1.00;0.63;;;;;;;10.07;98.36;96016.81;5041667;28;20418;-90
2021/05/18 05:42:51;;;;;;;2.73;0.77;;;;;;;10.08;99.17;96018.25;5041605;28;20475;-90
2021/05/18 05:45:18;;;;;;;1.33;0.80;;;;;;;10.15;98.69;96016.78;5041779;28;20903;-91
2021/05/18 05:47:44;;;;;;;1.00;0.67;;;;;;;10.20;98.88;96018.59;5042362;28;20420;-89
2021/05/18 05:50:11;;;;;;;1.10;0.83;;;;;;;10.21;98.92;96018.03;5042247;28;20482;-90
2021/05/18 05:52:40;;;;;;;2.30;1.10;;;;;;;10.30;98.92;96016.03;5041849;28;20805;-90
2021/05/18 05:55:09;;;;;;;1.30;1.00;;;;;;;10.24;99.66;96023.59;5042962;28;20522;-90
2021/05/18 05:57:37;;;;;;;0.90;0.77;;;;;;;10.25;99.94;96025.03;5044973;28;20453;-92
2021/05/18 06:00:06;;;;;;;1.93;1.00;;;;;;;10.24;100.00;96024.31;5043717;28;20467;-93
2021/05/18 06:02:32;;;;;;;1.33;1.13;;;;;;;10.25;99.66;96036.53;5041715;28;20470;-92
2021/05/18 06:04:58;;;;;;;3.53;1.20;;;;;;;10.21;100.00;96036.91;5041951;28;20443;-91
2021/05/18 06:07:24;;;;;;;2.70;1.50;;;;;;;10.18;100.00;96048.03;5040977;28;20437;-91
2021/05/18 06:09:55;;;;;;;3.80;1.30;;;;;;;10.15;100.00;96041.06;5042230;28;20483;-91
2021/05/18 06:12:32;;;;;;;5.20;1.60;;;;;;;10.14;100.00;96042.34;5041080;28;20434;-90
2021/05/18 06:15:23;;;;;;;2.37;1.10;;;;;;;10.11;100.00;96044.13;5042550;28;20449;-90
2021/05/18 06:34:35;;;;;;;2.43;1.43;;;;;;;10.22;100.00;96051.09;5010220;28;20918;-91
2021/05/18 06:37:32;;;;;;;3.03;1.70;;;;;;;10.24;100.00;96061.34;5041536;28;20443;-91
2021/05/18 06:42:44;;;;;;;1.93;1.23;;;;;;;10.44;100.00;96061.09;5040937;28;20393;-91
2021/05/18 06:47:56;;;;;;;3.03;1.40;;;;;;;10.60;100.00;96065.16;5041794;28;20446;-89
2021/05/18 06:50:29;;;;;;;3.20;1.73;;;;;;;10.74;100.00;96065.63;5046942;28;20434;-89
2021/05/18 06:52:56;;;;;;;1.80;1.20;;;;;;;10.94;100.00;96063.88;5045095;28;20438;-89
2021/05/18 06:55:27;;;;;;;3.13;1.73;;;;;;;10.92;100.00;96066.41;5042834;28;20460;-87
2021/05/18 06:58:00;;;;;;;5.43;1.53;;;;;;;10.99;99.87;96071.06;5040897;28;20459;-87
2021/05/18 07:00:33;;;;;;;3.50;1.33;;;;;;;11.09;98.84;96077.28;5042251;28;20519;-91
2021/05/18 07:05:49;;;;;;;3.97;1.70;;;;;;;11.27;98.14;96100.41;5042024;28;20418;-87
2021/05/18 07:08:54;;;;;;;1.97;1.17;;;;;;;11.38;98.48;96088.44;5046666;28;20448;-88
2021/05/18 07:11:16;;;;;;;1.30;0.80;;;;;;;11.46;97.38;96092.53;5048107;28;20457;-89
2021/05/18 07:13:42;;;;;;;5.07;1.23;;;;;;;11.52;96.75;96084.19;5045872;28;20493;-90
2021/05/18 07:16:08;;;;;;;3.13;1.43;;;;;;;11.57;96.32;96089.34;5052850;28;20533;-92
2021/05/18 07:18:35;;;;;;;5.33;1.30;;;;;;;11.74;95.41;96092.13;5043975;28;20459;-90
2021/05/18 07:21:02;;;;;;;1.43;0.90;;;;;;;11.74;93.30;96091.41;5043427;28;20534;-91
2021/05/18 07:23:28;;;;;;;2.00;1.70;;;;;;;11.77;93.76;96096.44;5044955;28;20763;-88
2021/05/18 07:25:55;;;;;;;1.67;1.00;;;;;;;11.93;93.03;96096.28;5050553;28;20429;-91
2021/05/18 07:28:31;;;;;;;2.20;1.53;;;;;;;11.99;92.57;96108.31;5050948;28;20479;-94
2021/05/18 07:31:01;;;;;;;1.00;0.60;;;;;;;12.14;91.72;96104.72;5049798;28;20439;-91
2021/05/18 07:33:41;;;;;;;1.70;0.83;;;;;;;12.29;90.36;96101.88;5051526;28;20419;-92
2021/05/18 07:36:50;;;;;;;;;;;;;;;;;;;;;
2021/05/18 07:39:59;;;;;;;1.43;1.00;;;;;;;12.43;88.37;96094.88;4939678;29;20500;-92
2021/05/18 08:23:23;;;;;;;;;;;;;;;;;;;;;
2021/05/18 11:32:58;;;;;;;2.03;0.67;;;;;;;17.19;57.99;96012.00;5042580;28;20471;-93
2021/05/18 12:37:36;;;;;;;3.70;0.83;;;;;;;16.45;53.34;95987.13;4991542;28;20504;-93
2021/05/18 12:40:19;;;;;;;;;;;;;;;;;;;;;
2021/05/18 12:43:09;;;;;;;;;;;;;;;;;;;;;
2021/05/18 12:45:36;;;;;;;2.60;0.67;;;;;;;16.45;54.50;95976.22;5008280;28;20461;-91
2021/05/18 12:48:13;;;;;;;8.30;1.53;;;;;;;16.27;54.44;95972.38;5008058;28;20453;-91
2021/05/18 12:50:51;;;;;;;1.23;0.50;;;;;;;16.42;56.45;95982.84;5007378;28;20452;-90
2021/05/18 12:53:37;;;;;;;3.80;1.10;;;;;;;16.62;53.88;95989.56;5008604;28;20543;-91
2021/05/18 12:56:04;;;;;;;1.80;0.60;;;;;;;16.37;54.50;95983.91;5005393;28;20477;-88
2021/05/18 12:58:35;;;;;;;2.50;0.80;;;;;;;16.21;55.16;95980.91;5004202;28;20461;-89
2021/05/18 13:04:25;;;;;;;4.13;1.10;;;;;;;15.67;60.62;95991.06;4996331;28;20461;-94
2021/05/18 13:07:22;;;;;;;1.90;1.03;;;;;;;15.60;61.92;95981.13;5018263;28;20448;-94
2021/05/18 13:10:27;;;;;;;2.07;0.60;;;;;;;15.73;58.65;95981.28;5018827;28;20456;-94
2021/05/18 13:13:02;;;;;;;0.80;0.60;;;;;;;15.88;58.13;95982.91;5013079;28;20419;-95
2021/05/18 13:15:29;;;;;;;1.50;0.60;;;;;;;15.71;58.46;95985.91;5015471;28;20424;-93
2021/05/18 13:18:41;;;;;;;1.23;0.67;;;;;;;15.71;59.11;95986.59;5013253;28;20441;-93
2021/05/18 13:21:25;;;;;;;4.30;0.93;;;;;;;15.66;59.60;95995.09;4954571;28;20469;-92
2021/05/18 13:27:48;;;;;;;1.10;0.70;;;;;;;15.51;60.45;95996.19;4935554;29;20464;-94
2021/05/18 13:30:37;;;;;;;2.47;0.63;;;;;;;15.44;59.73;95986.19;4846235;29;20468;-94
2021/05/18 13:33:07;;;;;;;10.57;1.00;;;;;;;15.41;61.06;95990.09;4910171;29;20543;-90
2021/05/18 13:35:35;;;;;;;1.80;0.50;;;;;;;15.64;61.03;95981.34;4991141;28;20447;-91
2021/05/18 13:38:02;;;;;;;6.23;1.60;;;;;;;15.87;60.65;95981.47;5001100;28;20474;-89
2021/05/18 13:40:38;;;;;;;;;;;;;;;;;;;;;
2021/05/18 13:43:36;;;;;;;1.73;0.70;;;;;;;16.17;59.33;95977.22;5015135;28;20421;-95
2021/05/18 13:46:10;;;;;;;1.13;0.73;;;;;;;16.31;56.27;95978.09;5011400;28;20540;-91
2021/05/18 13:51:40;;;;;;;;;;;;;;;;;;;;;
2021/05/18 13:54:35;;;;;;;2.30;0.73;;;;;;;16.36;57.76;95957.97;5014780;28;20429;-94
2021/05/18 13:57:15;;;;;;;;;;;;;;;;;;;;;
2021/05/18 13:59:54;;;;;;;;;;;;;;;;;;;;;
2021/05/18 14:02:37;;;;;;;1.13;0.50;;;;;;;16.28;59.41;95963.66;5002187;28;20949;-93
2021/05/18 14:05:13;;;;;;;6.63;1.00;;;;;;;16.23;60.65;95970.13;5003615;28;20484;-94
2021/05/18 14:11:03;;;;;;;2.80;0.80;;;;;;;15.74;61.64;95973.84;5009631;28;20484;-92
2021/05/18 14:23:53;;;;;;;2.03;0.60;;;;;;;14.46;66.76;95973.59;4971909;28;20453;-87
2021/05/18 14:26:48;;;;;;;0.97;0.50;;;;;;;14.37;63.88;95970.91;4934858;29;20451;-95
2021/05/18 14:29:22;;;;;;;2.87;0.50;;;;;;;14.51;66.19;95974.56;4945823;29;20487;-92
2021/05/18 14:31:49;;;;;;;1.60;0.70;;;;;;;14.65;65.62;95972.81;4958669;28;20449;-88
2021/05/18 14:34:19;;;;;;;1.23;0.60;;;;;;;14.83;63.92;95976.03;5001634;28;20456;-88
2021/05/18 14:36:46;;;;;;;1.10;0.50;;;;;;;14.97;62.02;95985.84;4999822;28;20559;-88
2021/05/18 14:39:22;;;;;;;;;;;;;;;;;;;;;
2021/05/18 14:45:17;;;;;;;1.23;0.70;;;;;;;15.28;58.30;95969.53;4982898;28;20467;-86
2021/05/18 14:48:06;;;;;;;0.90;0.70;;;;;;;15.28;56.95;95964.13;5003663;28;20445;-88
2021/05/18 14:53:48;;;;;;;1.20;0.60;;;;;;;15.45;57.43;95963.13;5008173;28;20409;-88
2021/05/18 14:59:13;;;;;;;1.97;1.10;;;;;;;15.31;57.15;95967.66;5006411;28;20473;-93
2021/05/18 15:05:35;;;;;;;3.23;1.03;;;;;;;15.34;57.37;95963.78;4958164;28;20452;-96
2021/05/18 15:08:14;;;;;;;;;;;;;;;;;;;;;
2021/05/18 15:11:02;;;;;;;0.70;0.40;;;;;;;15.31;57.94;95962.22;5008906;28;20437;-94
2021/05/18 15:13:54;;;;;;;;;;;;;;;;;;;;;
2021/05/18 15:16:24;;;;;;;1.33;0.67;;;;;;;15.34;58.37;95950.19;5007204;28;20571;-91
2021/05/18 15:19:04;;;;;;;;;;;;;;;;;;;;;
2021/05/18 15:21:36;;;;;;;1.80;0.80;;;;;;;15.12;58.64;95963.06;4998822;28;20536;-90
2021/05/18 15:24:04;;;;;;;1.13;0.60;;;;;;;15.08;57.53;95965.50;5005806;28;20422;-91
2021/05/18 15:27:10;;;;;;;;;;;;;;;;;;;;;
2021/05/18 15:29:53;;;;;;;;;;;;;;;;;;;;;
2021/05/18 15:32:32;;;;;;;3.90;0.90;;;;;;;15.66;56.68;95959.75;5005043;28;20436;-89
2021/05/18 15:34:59;;;;;;;3.80;0.93;;;;;;;15.83;55.57;95964.91;5007539;28;20433;-90
2021/05/18 15:37:44;;;;;;;4.37;1.00;;;;;;;16.02;54.86;95967.47;5009468;28;20893;-91
2021/05/18 15:40:11;;;;;;;3.27;0.87;;;;;;;16.11;55.63;95966.66;5007548;28;20416;-92
2021/05/18 15:42:39;;;;;;;2.37;0.67;;;;;;;16.15;54.98;95963.47;5004505;28;20445;-91
2021/05/18 15:45:07;;;;;;;1.70;0.63;;;;;;;15.96;54.77;95956.19;5008997;28;20476;-92
2021/05/18 15:47:36;;;;;;;1.20;0.77;;;;;;;15.54;55.92;95962.38;5008427;28;20445;-92
2021/05/18 15:50:08;;;;;;;3.33;0.73;;;;;;;15.29;57.17;95957.34;5006970;28;20459;-94
2021/05/18 15:53:16;;;;;;;;;;;;;;;;;;;;;
2021/05/18 15:55:52;;;;;;;;;;;;;;;;;;;;;
2021/05/18 15:58:39;;;;;;;5.77;0.70;;;;;;;15.36;58.47;95953.03;5007735;28;20446;-92
2021/05/18 16:01:15;;;;;;;;;;;;;;;;;;;;;
2021/05/18 16:04:02;;;;;;;3.17;0.83;;;;;;;15.32;58.46;95945.31;4999979;28;20529;-90
2021/05/18 16:06:33;;;;;;;4.03;0.93;;;;;;;15.14;59.28;95940.72;5009847;28;20582;-92
2021/05/18 16:45:12;;;;;;;3.87;1.17;;;;;;;11.85;84.78;95968.56;5023483;28;20451;-94
2021/05/18 16:47:39;;;;;;;2.60;0.77;;;;;;;11.82;86.26;95965.72;5018886;28;20460;-89
2021/05/18 16:50:08;;;;;;;2.60;1.03;;;;;;;11.88;87.39;95964.75;5018630;28;20445;-89
2021/05/18 16:52:41;;;;;;;1.43;1.03;;;;;;;11.88;88.14;95964.75;5021598;28;20443;-92
2021/05/18 16:55:21;;;;;;;;;;;;;;;;;;;;;
2021/05/18 16:57:47;;;;;;;3.77;0.97;;;;;;;12.08;86.15;95969.03;5020703;28;20583;-90
2021/05/18 17:00:15;;;;;;;3.60;1.00;;;;;;;12.15;85.21;95970.94;5022248;28;20472;-92
2021/05/18 17:02:42;;;;;;;1.13;0.83;;;;;;;12.10;86.15;95975.31;5022806;28;20849;-91
2021/05/18 17:05:09;;;;;;;2.57;1.00;;;;;;;12.05;86.18;95978.97;5024748;28;20415;-89
2021/05/18 17:07:36;;;;;;;3.77;0.90;;;;;;;12.02;87.18;95974.69;5019216;28;20923;-91
2021/05/18 17:10:07;;;;;;;6.40;1.10;;;;;;;12.03;87.67;95967.31;5022865;28;20429;-93
2021/05/18 17:12:36;;;;;;;2.03;1.10;;;;;;;12.16;87.51;95966.94;5035930;28;20467;-95
2021/05/18 17:15:05;;;;;;;3.80;1.07;;;;;;;12.33;86.86;95961.50;5032690;28;20452;-93
2021/05/18 17:17:32;;;;;;;5.80;1.10;;;;;;;12.36;86.40;95963.09;5021015;28;20530;-89
2021/05/18 17:19:59;;;;;;;1.30;0.90;;;;;;;12.44;85.80;95977.22;5017982;28;20531;-89
2021/05/18 17:22:26;;;;;;;6.03;1.77;;;;;;;12.38;87.06;95984.88;5018107;28;20871;-88
2021/05/18 17:24:53;;;;;;;4.43;1.83;;;;;;;12.43;87.51;96004.84;5017741;28;20470;-89
2021/05/18 17:27:20;;;;;;;1.63;1.17;;;;;;;12.23;88.04;96025.66;5017616;28;20448;-89
2021/05/18 17:29:47;;;;;;;1.20;1.10;;;;;;;12.19;87.39;96026.03;5017773;28;20523;-88
2021/05/18 17:32:13;;;;;;;1.20;0.90;;;;;;;11.81;84.54;96026.44;5017871;28;20535;-88
2021/05/18 17:34:40;;;;;;;1.87;0.50;;;;;;;11.26;82.20;96023.34;5017888;28;20452;-88
2021/05/18 17:37:08;;;;;;;1.17;0.93;;;;;;;11.13;83.69;96018.94;5028031;28;20472;-87
2021/05/18 17:39:36;;;;;;;1.53;0.70;;;;;;;10.97;83.21;96009.50;5028287;28;20435;-91
2021/05/18 17:42:03;;;;;;;1.10;0.60;;;;;;;10.83;84.78;96023.84;5020350;28;20411;-92
2021/05/18 17:44:30;;;;;;;1.03;0.53;;;;;;;10.88;85.93;96017.50;5019710;28;20990;-88
2021/05/18 17:46:56;;;;;;;0.63;0.50;;;;;;;10.80;84.28;96014.84;5016888;28;20441;-87
2021/05/18 17:49:23;;;;;;;1.57;0.53;;;;;;;10.70;84.31;96014.72;5017336;28;20505;-87
2021/05/18 17:51:51;;;;;;;0.70;0.50;;;;;;;10.64;85.18;96019.63;5023005;28;20494;-86
2021/05/18 17:54:19;;;;;;;0.83;0.70;;;;;;;10.63;85.23;96020.88;5038509;28;20447;-86
2021/05/18 17:56:45;;;;;;;1.07;0.67;;;;;;;10.64;82.76;96027.00;5038355;28;20483;-86
2021/05/18 17:59:12;;;;;;;1.53;0.50;;;;;;;10.57;84.80;96020.38;5038416;28;20471;-86
2021/05/18 18:01:38;;;;;;;3.37;0.80;;;;;;;10.67;85.11;96029.31;5020054;28;20498;-87
2021/05/18 18:04:06;;;;;;;2.00;0.70;;;;;;;10.73;85.22;96029.81;5017188;28;20456;-87
2021/05/18 18:06:32;;;;;;;1.17;0.60;;;;;;;10.56;87.39;96029.72;5016892;28;20502;-87
2021/05/18 18:09:00;;;;;;;4.10;0.70;;;;;;;10.41;89.17;96032.50;5016406;28;20543;-88
2021/05/18 18:11:27;;;;;;;0.60;0.40;;;;;;;10.42;89.23;96031.25;5016877;28;20547;-87
2021/05/18 18:13:53;;;;;;;1.10;0.77;;;;;;;10.23;90.38;96049.84;5017642;28;20495;-86
2021/05/18 18:16:20;;;;;;;1.67;0.60;;;;;;;10.22;90.32;96043.00;5017884;28;20494;-86
2021/05/18 18:18:49;;;;;;;1.30;0.67;;;;;;;10.15;90.03;96044.47;5016756;28;20456;-87
2021/05/18 18:21:16;;;;;;;1.03;0.63;;;;;;;10.14;90.77;96043.06;5016217;28;20418;-86
2021/05/18 18:23:42;;;;;;;1.60;0.73;;;;;;;10.14;90.29;96045.75;5016594;28;20422;-85
2021/05/18 18:26:09;;;;;;;0.93;0.60;;;;;;;10.12;91.25;96042.13;5015623;28;20431;-85
2021/05/18 18:28:36;;;;;;;0.60;0.60;;;;;;;10.14;91.15;96039.63;5016099;28;20910;-87
2021/05/18 18:31:03;;;;;;;2.50;0.60;;;;;;;10.06;92.74;96038.91;5016357;28;20445;-87
2021/05/18 18:33:30;;;;;;;1.80;0.70;;;;;;;10.08;92.38;96033.69;5015656;28;20443;-85
2021/05/18 18:35:56;;;;;;;2.53;0.90;;;;;;;10.17;91.06;96028.47;5015791;28;20443;-84
2021/05/18 18:38:22;;;;;;;3.10;0.73;;;;;;;10.21;89.69;96036.19;5015456;28;20972;-85
2021/05/18 18:40:48;;;;;;;1.43;0.60;;;;;;;10.26;88.65;96034.56;5016212;28;20401;-86
2021/05/18 18:43:16;;;;;;;2.00;0.60;;;;;;;10.21;88.36;96041.59;5016255;28;20512;-85
2021/05/18 18:45:42;;;;;;;0.90;0.60;;;;;;;10.29;88.82;96047.66;5017135;28;20405;-87
2021/05/18 18:48:13;;;;;;;1.63;1.27;;;;;;;10.35;89.20;96056.28;5023394;28;20492;-90
2021/05/18 18:50:41;;;;;;;1.23;0.70;;;;;;;10.37;90.81;96053.72;5024568;28;20986;-90
2021/05/18 18:53:19;;;;;;;1.00;0.70;;;;;;;10.36;91.21;96059.69;5026934;28;20411;-92
2021/05/18 18:55:45;;;;;;;1.53;0.77;;;;;;;10.41;91.09;96067.56;5030236;28;20432;-91
2021/05/18 18:58:14;;;;;;;1.90;0.90;;;;;;;10.41;91.87;96066.84;5034103;28;20515;-90
2021/05/18 19:00:41;;;;;;;1.43;0.80;;;;;;;10.38;92.16;96055.19;5024243;28;20438;-91
2021/05/18 19:03:08;;;;;;;2.80;0.90;;;;;;;10.42;92.84;96066.31;5023575;28;20458;-91
2021/05/18 19:05:45;;;;;;;4.13;0.90;;;;;;;10.44;92.87;96074.56;5023948;28;20454;-90
2021/05/18 19:13:41;;;;;;;2.10;1.13;;;;;;;10.23;95.19;96071.41;5035652;28;20397;-90
2021/05/18 19:16:08;;;;;;;1.43;0.90;;;;;;;10.30;95.24;96073.38;5024392;28;20478;-92
2021/05/18 19:18:34;;;;;;;2.50;1.20;;;;;;;10.25;95.21;96071.59;5023501;28;20537;-91
2021/05/18 19:21:00;;;;;;;1.53;0.80;;;;;;;10.23;96.14;96068.72;5022022;28;20410;-90
2021/05/18 19:23:27;;;;;;;1.70;0.93;;;;;;;10.21;95.22;96079.34;5021901;28;20424;-91
2021/05/18 19:25:55;;;;;;;2.07;1.20;;;;;;;10.23;95.67;96081.47;5022257;28;20458;-91
2021/05/18 19:28:21;;;;;;;1.70;1.10;;;;;;;10.18;95.45;96083.09;5022130;28;20443;-91
2021/05/18 19:30:48;;;;;;;1.43;0.83;;;;;;;10.14;94.59;96086.19;5022587;28;20516;-90
2021/05/18 19:33:16;;;;;;;2.23;1.00;;;;;;;10.05;93.97;96086.72;5022133;28;20478;-91
2021/05/18 19:35:53;;;;;;;1.97;0.90;;;;;;;10.19;94.13;96089.94;5021169;28;20466;-90
2021/05/18 19:41:28;;;;;;;5.73;1.57;;;;;;;10.24;93.73;96097.13;5020316;28;20390;-90
2021/05/18 19:43:58;;;;;;;2.40;1.40;;;;;;;10.23;94.67;96095.69;5020074;28;20919;-90
2021/05/18 19:49:12;;;;;;;3.50;2.53;;;;;;;10.83;100.00;96099.41;5020957;28;20474;-90
2021/05/18 19:51:40;;;;;;;2.30;1.30;;;;;;;11.09;98.26;96101.56;5020605;28;20973;-90
2021/05/18 19:54:11;;;;;;;2.30;1.63;;;;;;;11.05;95.42;96109.38;5019860;28;20933;-89
2021/05/18 19:56:41;;;;;;;1.57;1.27;;;;;;;10.74;93.71;96106.81;5019232;28;20435;-88
2021/05/18 19:59:27;;;;;;;2.70;1.20;;;;;;;10.62;94.62;96102.38;5019945;28;20807;-90
2021/05/18 20:16:01;;;;;;;1.13;1.03;;;;;;;10.02;96.62;96097.88;5021159;28;20410;-87
2021/05/18 20:21:14;;;;;;;1.13;0.80;;;;;;;10.04;96.63;96103.44;5019839;28;20411;-88
2021/05/18 20:23:40;;;;;;;0.93;0.70;;;;;;;10.04;96.73;96114.22;5020372;28;20781;-88
2021/05/18 20:26:07;;;;;;;1.43;1.00;;;;;;;10.03;96.20;96108.09;5020302;28;20458;-88
2021/05/18 20:28:33;;;;;;;2.50;1.20;;;;;;;9.97;96.92;96107.56;5018996;28;20521;-88
2021/05/18 20:31:00;;;;;;;5.60;1.27;;;;;;;9.90;97.62;96105.59;5019014;28;20879;-88